Time;durP1;ratioP1;P1;durP2;ratioP2;P2;SDS_P1;SDS_P2;PMS_P1;PMS_P2;Temp;Humidity;BMP_temperature;BMP_pressure;BME280_temperature;BME280_humidity;BME280_pressure;Samples;Min_cycle;Max_cycle;Signal;HPM_P1;HPM_P2
2021/05/09 00:00:25;;;;;;;1.13;0.80;;;21.50;42.40;;;;;;10503599;28;20216;-16
2021/05/09 00:05:46;;;;;;;0.60;0.60;;;21.60;41.80;;;;;;10505236;28;20216;-15
2021/05/09 00:11:08;;;;;;;0.67;0.60;;;21.50;41.90;;;;;;10493706;28;20246;-15
2021/05/09 00:16:32;;;;;;;0.73;0.50;;;21.40;42.10;;;;;;10482250;28;20638;-15
2021/05/09 00:21:53;;;;;;;0.53;0.53;;;21.50;41.80;;;;;;10472744;28;20197;-15
2021/05/09 00:27:15;;;;;;;0.47;0.47;;;21.70;41.50;;;;;;10504124;28;20212;-13
2021/05/09 00:32:38;;;;;;;1.07;0.70;;;21.60;41.80;;;;;;10491097;28;20207;-13
2021/05/09 00:37:59;;;;;;;0.60;0.60;;;21.40;41.90;;;;;;10501994;28;20710;-17
2021/05/09 00:43:21;;;;;;;0.70;0.57;;;21.50;42.00;;;;;;10502292;28;20208;-13
2021/05/09 00:48:43;;;;;;;0.73;0.50;;;21.50;42.10;;;;;;10501878;28;20219;-15
2021/05/09 00:54:06;;;;;;;0.80;0.60;;;21.30;43.00;;;;;;10501948;28;20223;-17
2021/05/09 00:59:30;;;;;;;2.20;0.60;;;21.20;42.70;;;;;;10501107;28;20247;-13
2021/05/09 01:04:53;;;;;;;0.97;0.50;;;21.20;42.50;;;;;;10504045;28;20188;-14
2021/05/09 01:10:15;;;;;;;2.10;0.60;;;21.10;42.80;;;;;;10499677;28;20220;-15
2021/05/09 01:15:37;;;;;;;0.77;0.60;;;21.10;42.90;;;;;;10476695;28;20247;-14
2021/05/09 01:21:00;;;;;;;0.60;0.60;;;21.30;42.40;;;;;;10459829;28;20680;-14
2021/05/09 01:26:21;;;;;;;0.40;0.40;;;21.40;42.40;;;;;;10459207;28;20221;-16
2021/05/09 01:31:44;;;;;;;0.67;0.53;;;21.40;42.40;;;;;;10459473;28;20205;-13
2021/05/09 01:37:07;;;;;;;0.70;0.50;;;21.40;42.40;;;;;;10458031;28;20296;-16
2021/05/09 01:42:28;;;;;;;1.03;0.70;;;21.30;42.50;;;;;;10459122;28;20204;-17
2021/05/09 01:47:50;;;;;;;0.93;0.63;;;21.10;42.70;;;;;;10460023;28;20227;-14
2021/05/09 01:53:12;;;;;;;1.37;0.70;;;21.10;43.00;;;;;;10458405;28;20193;-16
2021/05/09 01:58:34;;;;;;;0.60;0.60;;;21.20;42.80;;;;;;10457242;28;20217;-17
2021/05/09 02:03:55;;;;;;;0.70;0.50;;;21.20;43.00;;;;;;10459218;28;20193;-14
2021/05/09 02:09:18;;;;;;;0.90;0.50;;;21.10;42.90;;;;;;10468656;28;20220;-16
2021/05/09 02:14:40;;;;;;;0.53;0.53;;;21.40;42.60;;;;;;10466986;28;20200;-15
2021/05/09 02:20:03;;;;;;;0.57;0.50;;;21.40;42.30;;;;;;10500468;28;20729;-14
2021/05/09 02:25:26;;;;;;;0.80;0.60;;;21.30;42.50;;;;;;10491342;28;20205;-14
2021/05/09 02:30:47;;;;;;;0.53;0.53;;;21.30;42.70;;;;;;10458240;28;20684;-16
2021/05/09 02:36:09;;;;;;;0.50;0.50;;;21.30;42.80;;;;;;10456955;28;20221;-13
2021/05/09 02:41:31;;;;;;;1.10;0.77;;;21.20;42.90;;;;;;10457255;28;20204;-13
2021/05/09 02:46:53;;;;;;;0.50;0.50;;;21.10;43.20;;;;;;10454735;28;20212;-14
2021/05/09 02:52:14;;;;;;;0.73;0.60;;;21.10;43.20;;;;;;10455105;28;20193;-16
2021/05/09 02:57:37;;;;;;;0.53;0.50;;;21.30;42.80;;;;;;10483030;22;20220;-17
2021/05/09 03:02:58;;;;;;;1.47;0.63;;;21.40;42.60;;;;;;10539212;28;20253;-15
2021/05/09 03:08:20;;;;;;;0.70;0.50;;;21.20;42.90;;;;;;10524155;28;20253;-17
2021/05/09 03:13:42;;;;;;;0.50;0.50;;;21.30;43.00;;;;;;10526212;28;20196;-16
2021/05/09 03:19:04;;;;;;;0.60;0.50;;;21.10;43.20;;;;;;10517920;28;20735;-14
2021/05/09 03:24:26;;;;;;;1.33;0.70;;;21.10;43.20;;;;;;10541373;28;20191;-15
2021/05/09 03:29:48;;;;;;;0.67;0.43;;;21.10;43.40;;;;;;10532513;28;20215;-15
2021/05/09 03:35:11;;;;;;;0.50;0.40;;;21.30;42.90;;;;;;10540681;28;20198;-17
2021/05/09 03:40:33;;;;;;;0.57;0.57;;;21.30;42.60;;;;;;10540825;28;20224;-15
2021/05/09 03:45:55;;;;;;;0.30;0.30;;;21.10;42.90;;;;;;10543564;28;20191;-15
2021/05/09 03:51:17;;;;;;;0.63;0.57;;;21.10;43.40;;;;;;10534491;28;20191;-16
2021/05/09 03:56:38;;;;;;;0.77;0.40;;;21.00;43.40;;;;;;10543851;28;20223;-17
2021/05/09 04:02:01;;;;;;;0.70;0.70;;;21.00;43.40;;;;;;10508041;28;20207;-15
2021/05/09 04:07:22;;;;;;;0.70;0.60;;;21.00;43.40;;;;;;10499140;28;20217;-16
2021/05/09 04:12:44;;;;;;;0.50;0.50;;;21.00;43.50;;;;;;10521410;28;20192;-14
2021/05/09 04:18:07;;;;;;;0.80;0.53;;;21.00;43.20;;;;;;10501470;28;20242;-17
2021/05/09 04:23:28;;;;;;;0.80;0.60;;;21.00;43.40;;;;;;10503993;28;20207;-15
2021/05/09 04:28:50;;;;;;;0.50;0.40;;;21.10;43.40;;;;;;10516492;28;20648;-16
2021/05/09 04:34:12;;;;;;;0.50;0.50;;;21.30;43.00;;;;;;10503242;28;20195;-18
2021/05/09 04:39:34;;;;;;;0.40;0.40;;;21.20;43.00;;;;;;10502728;28;20216;-18
2021/05/09 04:44:55;;;;;;;0.77;0.43;;;21.20;43.30;;;;;;10506610;28;20199;-17
2021/05/09 04:50:18;;;;;;;0.30;0.30;;;21.10;43.40;;;;;;10510002;28;20726;-17
2021/05/09 04:55:39;;;;;;;0.70;0.50;;;21.00;43.50;;;;;;10510072;28;20579;-14
2021/05/09 05:01:03;;;;;;;0.60;0.60;;;20.90;43.60;;;;;;10537885;28;20265;-15
2021/05/09 05:06:25;;;;;;;0.47;0.47;;;21.00;43.60;;;;;;10548978;28;20704;-18
2021/05/09 05:11:48;;;;;;;0.63;0.50;;;21.20;43.40;;;;;;10548054;28;20301;-17
2021/05/09 05:17:09;;;;;;;0.90;0.40;;;21.40;42.70;;;;;;10517559;28;20699;-17
2021/05/09 05:22:32;;;;;;;0.50;0.50;;;21.50;42.50;;;;;;10505662;28;20196;-14
2021/05/09 05:27:53;;;;;;;1.30;0.70;;;21.60;42.30;;;;;;10505650;28;20621;-17
2021/05/09 05:33:26;;;;;;;0.40;0.40;;;21.50;42.50;;;;;;10505387;28;20196;-18
2021/05/09 05:38:49;;;;;;;1.53;0.53;;;21.70;42.30;;;;;;10505420;28;20244;-16
2021/05/09 05:44:10;;;;;;;0.57;0.57;;;21.80;42.20;;;;;;10512847;28;20204;-18
2021/05/09 05:49:32;;;;;;;2.87;0.47;;;21.70;42.40;;;;;;10526972;28;20207;-14
2021/05/09 05:54:54;;;;;;;0.63;0.47;;;21.60;42.60;;;;;;10553982;28;20192;-17
2021/05/09 06:00:17;;;;;;;0.60;0.40;;;21.30;42.90;;;;;;10553120;28;20220;-17
2021/05/09 06:05:39;;;;;;;0.60;0.60;;;21.40;43.10;;;;;;10550570;28;20266;-14
2021/05/09 06:11:01;;;;;;;0.73;0.50;;;21.60;42.60;;;;;;10552078;28;20684;-15
2021/05/09 06:16:23;;;;;;;1.03;0.60;;;21.70;42.50;;;;;;10528571;28;20220;-15
2021/05/09 06:21:45;;;;;;;1.20;0.40;;;21.60;42.60;;;;;;10535546;28;20196;-17
2021/05/09 06:27:07;;;;;;;0.40;0.40;;;21.60;42.80;;;;;;10538659;28;20218;-16
2021/05/09 06:32:29;;;;;;;0.40;0.40;;;21.60;42.80;;;;;;10550920;28;20200;-13
2021/05/09 06:37:52;;;;;;;0.47;0.47;;;21.50;42.90;;;;;;10549003;28;20602;-17
2021/05/09 06:43:14;;;;;;;0.50;0.50;;;21.60;42.70;;;;;;10544073;28;20199;-17
2021/05/09 06:48:36;;;;;;;1.10;0.60;;;21.70;42.60;;;;;;10519379;28;20220;-17
2021/05/09 06:53:58;;;;;;;0.60;0.47;;;21.70;42.60;;;;;;10502284;28;20725;-17
2021/05/09 06:59:20;;;;;;;0.80;0.60;;;21.60;42.50;;;;;;10496257;28;20216;-14
2021/05/09 07:04:42;;;;;;;0.67;0.50;;;21.60;43.00;;;;;;10497485;28;20201;-18
2021/05/09 07:10:04;;;;;;;0.90;0.60;;;21.70;42.80;;;;;;10496870;28;20231;-14
2021/05/09 07:15:29;;;;;;;0.47;0.43;;;21.80;42.90;;;;;;10515190;28;20195;-18
2021/05/09 07:20:55;;;;;;;1.17;0.80;;;21.70;42.80;;;;;;10541598;28;20388;-14
2021/05/09 07:26:16;;;;;;;1.37;0.67;;;21.70;42.80;;;;;;10532282;28;20216;-13
2021/05/09 07:31:41;;;;;;;2.00;0.90;;;21.70;43.20;;;;;;10544428;28;20203;-17
2021/05/09 07:37:02;;;;;;;1.07;0.90;;;21.90;43.50;;;;;;10544631;28;20223;-17
2021/05/09 07:42:24;;;;;;;0.97;0.70;;;21.80;43.30;;;;;;10546735;28;20191;-15
2021/05/09 07:47:47;;;;;;;1.53;0.83;;;21.70;43.80;;;;;;10545245;28;20219;-15
2021/05/09 07:53:09;;;;;;;1.63;0.90;;;21.80;43.90;;;;;;10543373;28;20241;-18
2021/05/09 07:58:31;;;;;;;1.00;0.80;;;21.80;43.90;;;;;;10546741;28;20223;-18
2021/05/09 08:03:54;;;;;;;2.33;0.80;;;21.70;44.00;;;;;;10548139;28;20268;-17
2021/05/09 08:09:15;;;;;;;1.33;0.90;;;21.70;44.00;;;;;;10546934;28;20216;-17
2021/05/09 08:14:37;;;;;;;1.50;0.90;;;21.70;44.30;;;;;;10538500;28;20242;-17
2021/05/09 08:19:59;;;;;;;1.23;1.10;;;21.70;44.50;;;;;;10503661;28;20224;-14
2021/05/09 08:25:21;;;;;;;2.10;1.27;;;21.70;44.50;;;;;;10529875;28;20200;-18
2021/05/09 08:30:43;;;;;;;1.40;0.80;;;21.70;44.50;;;;;;10549042;28;20212;-15
2021/05/09 08:36:06;;;;;;;2.23;0.90;;;21.70;44.50;;;;;;10549489;28;20192;-17
2021/05/09 08:41:27;;;;;;;0.83;0.80;;;21.80;44.50;;;;;;10555573;28;20694;-12
2021/05/09 08:46:49;;;;;;;2.07;1.00;;;21.70;44.70;;;;;;10556269;28;20211;-15
2021/05/09 08:52:12;;;;;;;2.17;1.00;;;21.70;44.80;;;;;;10557002;28;20191;-14
2021/05/09 08:57:34;;;;;;;1.73;0.90;;;21.70;44.80;;;;;;10575541;22;20225;-15
2021/05/09 09:02:55;;;;;;;1.57;0.97;;;21.70;44.90;;;;;;10446475;28;20202;-15
2021/05/09 09:08:20;;;;;;;1.77;0.90;;;21.60;45.10;;;;;;10433852;28;20232;-16
2021/05/09 09:13:41;;;;;;;0.67;0.63;;;21.60;45.20;;;;;;10450386;28;20193;-15
2021/05/09 09:19:07;;;;;;;3.23;0.97;;;21.70;45.30;;;;;;10415530;28;20347;-15
2021/05/09 09:24:29;;;;;;;1.93;1.00;;;21.70;45.30;;;;;;10417229;28;20233;-15
2021/05/09 09:29:59;;;;;;;1.70;0.83;;;21.60;45.40;;;;;;10436478;28;20688;-14
2021/05/09 09:35:28;;;;;;;2.47;1.30;;;21.60;45.50;;;;;;10457700;28;20227;-15
2021/05/09 09:41:23;;;;;;;1.37;0.90;;;21.60;45.50;;;;;;10456379;28;20236;-15
2021/05/09 09:46:51;;;;;;;1.17;0.70;;;21.70;45.20;;;;;;10457611;28;20201;-15
2021/05/09 09:52:13;;;;;;;1.00;0.80;;;21.70;45.40;;;;;;10444884;28;20197;-15
2021/05/09 09:57:35;;;;;;;0.90;0.80;;;21.70;45.30;;;;;;10451150;28;20220;-15
2021/05/09 10:02:57;;;;;;;0.80;0.70;;;21.60;45.40;;;;;;10497000;28;20199;-15
2021/05/09 10:08:21;;;;;;;2.50;0.80;;;21.50;45.60;;;;;;10496843;28;20212;-15
2021/05/09 10:13:46;;;;;;;2.50;0.90;;;21.50;45.60;;;;;;10488925;28;20204;-15
2021/05/09 10:19:11;;;;;;;1.73;0.93;;;21.50;45.50;;;;;;10454698;28;20385;-15
2021/05/09 10:24:37;;;;;;;1.73;1.07;;;21.60;45.30;;;;;;10457929;28;20197;-14
2021/05/09 10:29:59;;;;;;;3.47;1.03;;;21.50;45.30;;;;;;10485900;28;20250;-15
2021/05/09 10:35:50;;;;;;;2.80;0.83;;;21.50;45.60;;;;;;10495552;28;20200;-15
2021/05/09 10:41:12;;;;;;;0.97;0.70;;;21.60;45.50;;;;;;10494126;28;20216;-15
2021/05/09 10:47:06;;;;;;;0.70;0.63;;;21.60;45.40;;;;;;10493016;28;20199;-15
2021/05/09 10:52:45;;;;;;;2.53;0.93;;;21.50;45.40;;;;;;10494394;28;20207;-13
2021/05/09 10:58:07;;;;;;;1.00;0.80;;;21.60;45.50;;;;;;10494082;28;20216;-15
2021/05/09 11:03:50;;;;;;;0.80;0.63;;;21.60;45.50;;;;;;10494278;28;20188;-14
2021/05/09 11:09:14;;;;;;;2.07;0.80;;;21.60;45.30;;;;;;10493742;28;20216;-15
2021/05/09 11:14:38;;;;;;;1.53;0.70;;;21.50;45.70;;;;;;10468745;28;20548;-13
2021/05/09 11:20:09;;;;;;;0.90;0.70;;;21.60;45.50;;;;;;10492712;28;20220;-16
2021/05/09 11:25:32;;;;;;;0.90;0.53;;;21.50;45.60;;;;;;10493244;28;20203;-14
2021/05/09 11:30:53;;;;;;;1.37;0.53;;;21.50;45.80;;;;;;10491743;28;20588;-14
2021/05/09 11:36:24;;;;;;;1.63;0.80;;;21.40;45.80;;;;;;10492037;28;20196;-15
2021/05/09 11:41:51;;;;;;;1.47;0.90;;;21.50;45.60;;;;;;10493031;28;20216;-15
2021/05/09 11:47:14;;;;;;;0.90;0.70;;;21.40;45.80;;;;;;10492913;28;20196;-15
2021/05/09 11:52:39;;;;;;;0.50;0.50;;;21.50;45.60;;;;;;10493069;28;20200;-16
2021/05/09 11:58:01;;;;;;;1.73;0.70;;;21.60;45.40;;;;;;10500747;28;20273;-14
2021/05/09 12:03:23;;;;;;;0.77;0.50;;;21.50;45.50;;;;;;10490888;28;20683;-15
2021/05/09 12:08:44;;;;;;;0.73;0.60;;;21.50;45.50;;;;;;10459300;28;20607;-15
2021/05/09 12:14:07;;;;;;;0.83;0.70;;;21.40;45.30;;;;;;10464197;28;20196;-15
2021/05/09 12:19:30;;;;;;;1.47;0.80;;;21.30;45.20;;;;;;10500298;28;20707;-15
2021/05/09 12:24:55;;;;;;;0.80;0.70;;;21.40;45.30;;;;;;10489824;28;20197;-15
2021/05/09 12:30:18;;;;;;;1.03;0.60;;;21.30;45.10;;;;;;10482107;28;20682;-15
2021/05/09 12:35:45;;;;;;;1.10;0.70;;;21.30;44.90;;;;;;10499760;28;20653;-15
2021/05/09 12:41:08;;;;;;;0.90;0.70;;;21.40;44.90;;;;;;10499338;28;20219;-15
2021/05/09 12:46:35;;;;;;;1.20;0.63;;;21.40;44.80;;;;;;10499288;28;20192;-15
2021/05/09 12:52:02;;;;;;;0.70;0.50;;;21.50;44.70;;;;;;10499070;28;20317;-15
2021/05/09 12:57:24;;;;;;;1.33;0.50;;;21.70;44.50;;;;;;10499451;28;20262;-15
2021/05/09 13:02:47;;;;;;;0.70;0.60;;;21.60;44.70;;;;;;10500031;28;20196;-16
2021/05/09 13:08:09;;;;;;;0.70;0.70;;;21.70;44.80;;;;;;10497316;28;20204;-15
2021/05/09 13:13:31;;;;;;;0.70;0.70;;;21.80;44.50;;;;;;10498628;28;20682;-15
2021/05/09 13:18:53;;;;;;;1.20;0.80;;;21.80;44.50;;;;;;10456465;28;20217;-15
2021/05/09 13:24:15;;;;;;;2.83;1.07;;;21.70;44.90;;;;;;10457521;28;20201;-16
2021/05/09 13:29:36;;;;;;;1.20;0.80;;;21.70;45.00;;;;;;10457081;28;20683;-15
2021/05/09 13:34:59;;;;;;;1.33;0.60;;;21.60;45.60;;;;;;10456913;28;20193;-15
2021/05/09 13:40:22;;;;;;;2.00;0.93;;;21.50;45.70;;;;;;10470440;28;20281;-15
2021/05/09 13:45:44;;;;;;;1.57;0.83;;;21.50;46.10;;;;;;10497619;28;20207;-14
2021/05/09 13:51:06;;;;;;;0.80;0.80;;;21.50;46.20;;;;;;10497116;28;20287;-15
2021/05/09 13:56:28;;;;;;;1.57;1.03;;;21.70;46.80;;;;;;10496675;28;20246;-14
2021/05/09 14:01:50;;;;;;;1.73;0.97;;;21.70;46.60;;;;;;10495873;28;20216;-15
2021/05/09 14:07:12;;;;;;;3.10;1.20;;;21.80;46.70;;;;;;10484563;28;20602;-15
2021/05/09 14:12:34;;;;;;;1.47;1.03;;;21.60;47.10;;;;;;10495897;28;20690;-17
2021/05/09 14:17:56;;;;;;;2.20;1.00;;;21.50;47.40;;;;;;10460076;28;20217;-15
2021/05/09 14:23:19;;;;;;;0.80;0.80;;;21.60;47.40;;;;;;10464167;28;20205;-15
2021/05/09 14:28:41;;;;;;;1.67;1.37;;;21.50;47.50;;;;;;10453390;28;20216;-15
2021/05/09 14:34:02;;;;;;;1.37;0.90;;;21.60;47.60;;;;;;10454500;28;20201;-15
2021/05/09 14:39:25;;;;;;;1.33;0.90;;;21.70;47.70;;;;;;10453432;28;20217;-15
2021/05/09 14:44:46;;;;;;;1.73;1.10;;;21.80;47.80;;;;;;10453135;28;20250;-15
2021/05/09 14:50:09;;;;;;;1.37;1.00;;;21.80;47.80;;;;;;10453975;28;20221;-15
2021/05/09 14:55:31;;;;;;;1.33;1.20;;;21.70;47.90;;;;;;10453423;28;20201;-16
2021/05/09 15:00:53;;;;;;;2.90;1.07;;;21.60;48.10;;;;;;10552115;22;20219;-17
2021/05/09 15:06:15;;;;;;;0.90;0.90;;;21.60;48.30;;;;;;10576605;28;20218;-15
2021/05/09 15:11:37;;;;;;;3.10;1.03;;;21.60;48.40;;;;;;10597952;27;20222;-18
2021/05/09 15:16:59;;;;;;;1.10;1.00;;;21.70;48.50;;;;;;10604831;27;20191;-14
2021/05/09 15:22:20;;;;;;;2.40;1.23;;;21.50;48.60;;;;;;10621618;27;20245;-17
2021/05/09 15:27:43;;;;;;;1.50;0.90;;;21.40;48.90;;;;;;10631711;27;20212;-17
2021/05/09 15:33:05;;;;;;;1.30;0.97;;;21.40;49.00;;;;;;10624434;27;20217;-17
2021/05/09 15:38:26;;;;;;;1.50;1.27;;;21.40;49.10;;;;;;10619903;27;20218;-15
2021/05/09 15:43:49;;;;;;;1.87;1.10;;;21.40;49.00;;;;;;10585738;27;20198;-17
2021/05/09 15:49:11;;;;;;;1.23;1.00;;;21.60;49.20;;;;;;10584266;28;20214;-14
2021/05/09 15:54:32;;;;;;;2.87;1.10;;;21.50;49.10;;;;;;10608046;28;20201;-14
2021/05/09 15:59:55;;;;;;;1.77;1.20;;;21.60;49.20;;;;;;10627714;28;20225;-16
2021/05/09 16:05:16;;;;;;;2.33;1.20;;;21.70;49.40;;;;;;10605601;28;20244;-17
2021/05/09 16:10:38;;;;;;;2.43;1.00;;;21.70;49.10;;;;;;10588709;28;20214;-16
2021/05/09 16:16:00;;;;;;;1.53;1.00;;;21.50;49.30;;;;;;10606850;28;20201;-14
2021/05/09 16:21:22;;;;;;;2.20;1.10;;;21.60;49.50;;;;;;10596517;28;20633;-15
2021/05/09 16:26:44;;;;;;;2.17;1.10;;;21.60;50.20;;;;;;10608824;28;20583;-13
2021/05/09 16:32:06;;;;;;;1.80;1.10;;;21.50;49.80;;;;;;10633003;28;20217;-15
2021/05/09 16:37:30;;;;;;;2.17;1.17;;;21.60;49.70;;;;;;10634090;28;20262;-14
2021/05/09 16:42:52;;;;;;;1.43;1.07;;;21.70;49.60;;;;;;10638124;27;20278;-17
2021/05/09 16:48:14;;;;;;;1.37;0.90;;;21.60;49.70;;;;;;10634700;27;20215;-16
2021/05/09 16:53:44;;;;;;;2.37;1.10;;;21.50;49.80;;;;;;10634484;27;20642;-16
2021/05/09 16:59:05;;;;;;;2.17;1.20;;;21.60;49.70;;;;;;10634325;27;20239;-17
2021/05/09 17:04:28;;;;;;;1.73;1.00;;;21.40;49.80;;;;;;10614468;27;20277;-12
2021/05/09 17:09:49;;;;;;;2.87;1.33;;;21.50;49.80;;;;;;10548410;28;20215;-16
2021/05/09 17:15:12;;;;;;;1.80;1.07;;;21.50;49.80;;;;;;10571608;27;20267;-15
2021/05/09 17:20:34;;;;;;;2.13;0.97;;;21.50;49.50;;;;;;10632284;27;20619;-14
2021/05/09 17:25:56;;;;;;;0.87;0.80;;;21.40;49.70;;;;;;10632998;27;20212;-15
2021/05/09 17:31:18;;;;;;;1.97;1.23;;;21.70;49.40;;;;;;10630842;27;20317;-15
2021/05/09 17:36:42;;;;;;;5.57;1.03;;;21.60;49.10;;;;;;10630337;27;20194;-14
2021/05/09 17:42:04;;;;;;;2.00;1.43;;;21.50;49.50;;;;;;10629251;27;20210;-14
2021/05/09 17:47:29;;;;;;;2.80;1.10;;;21.40;49.70;;;;;;10629458;27;20569;-15
2021/05/09 17:52:52;;;;;;;1.03;0.97;;;21.40;49.70;;;;;;10628294;27;20190;-14
2021/05/09 17:58:13;;;;;;;2.10;1.00;;;21.40;49.60;;;;;;10614281;27;20222;-16
2021/05/09 18:03:35;;;;;;;0.87;0.80;;;21.60;49.20;;;;;;10623674;27;20194;-17
2021/05/09 18:08:58;;;;;;;2.57;0.93;;;21.40;49.50;;;;;;10626822;27;20500;-15
2021/05/09 18:14:21;;;;;;;0.83;0.80;;;21.30;49.70;;;;;;10553570;27;20599;-14
2021/05/09 18:19:58;;;;;;;0.97;0.87;;;21.70;49.20;;;;;;10627932;27;20210;-18
2021/05/09 18:25:21;;;;;;;1.77;1.10;;;21.70;48.90;;;;;;10613029;27;20226;-15
2021/05/09 18:30:43;;;;;;;2.70;1.23;;;21.80;48.70;;;;;;10587622;27;20410;-15
2021/05/09 18:36:05;;;;;;;1.47;1.07;;;22.70;46.40;;;;;;10624023;27;20689;-16
2021/05/09 18:41:27;;;;;;;6.63;1.10;;;21.90;48.20;;;;;;10621031;27;20286;-15
2021/05/09 18:46:51;;;;;;;1.63;0.90;;;21.60;49.20;;;;;;10582071;27;20192;-17
2021/05/09 18:52:12;;;;;;;1.13;0.90;;;21.50;49.50;;;;;;10542326;28;20219;-16
2021/05/09 18:57:35;;;;;;;1.20;0.80;;;21.50;49.80;;;;;;10539905;28;20662;-16
2021/05/09 19:02:58;;;;;;;2.40;0.90;;;21.40;49.80;;;;;;10546676;28;20195;-16
2021/05/09 19:08:22;;;;;;;2.63;1.40;;;21.70;49.50;;;;;;10548272;28;20639;-14
2021/05/09 19:13:45;;;;;;;1.47;0.90;;;21.70;49.30;;;;;;10551586;28;20192;-16
2021/05/09 19:19:06;;;;;;;2.83;1.00;;;21.80;49.10;;;;;;10551452;28;20226;-15
2021/05/09 19:24:33;;;;;;;2.23;1.00;;;21.80;48.90;;;;;;10550287;28;21081;-13
2021/05/09 19:29:56;;;;;;;4.43;1.27;;;21.90;48.60;;;;;;10596692;27;20215;-16
2021/05/09 19:35:18;;;;;;;1.97;1.10;;;21.90;48.50;;;;;;10599285;27;20658;-17
2021/05/09 19:40:39;;;;;;;1.10;1.00;;;22.00;48.50;;;;;;10602799;27;20229;-13
2021/05/09 19:46:02;;;;;;;1.37;0.90;;;22.00;48.30;;;;;;10591156;27;20281;-16
2021/05/09 19:51:23;;;;;;;1.60;0.60;;;22.00;48.20;;;;;;10628679;27;20215;-16
2021/05/09 19:56:45;;;;;;;1.30;1.10;;;22.00;48.00;;;;;;10610390;28;20618;-16
2021/05/09 20:02:08;;;;;;;1.43;1.10;;;21.90;48.30;;;;;;10583097;28;20230;-17
2021/05/09 20:07:30;;;;;;;1.23;0.90;;;21.90;48.30;;;;;;10577993;28;20559;-15
2021/05/09 20:12:52;;;;;;;0.83;0.83;;;21.90;48.30;;;;;;10550416;28;20209;-19
2021/05/09 20:18:14;;;;;;;1.53;0.87;;;22.00;48.40;;;;;;10635493;27;20217;-15
2021/05/09 20:23:36;;;;;;;1.43;1.07;;;21.90;48.20;;;;;;10561472;28;20183;-17
2021/05/09 20:28:58;;;;;;;0.80;0.80;;;21.90;48.20;;;;;;10603800;27;20215;-19
2021/05/09 20:34:21;;;;;;;1.07;0.80;;;21.90;48.20;;;;;;10587232;27;20617;-15
2021/05/09 20:39:43;;;;;;;1.13;0.83;;;21.90;48.20;;;;;;10581138;28;20284;-15
2021/05/09 20:45:06;;;;;;;0.67;0.67;;;21.90;48.30;;;;;;10578444;28;20205;-17
2021/05/09 20:50:29;;;;;;;1.40;1.13;;;21.90;48.30;;;;;;10598208;28;20222;-12
2021/05/09 20:55:50;;;;;;;1.37;0.87;;;21.90;48.30;;;;;;10594625;28;20195;-15
2021/05/09 21:01:12;;;;;;;1.87;0.80;;;21.90;48.40;;;;;;10554407;22;20228;-15
2021/05/09 21:06:34;;;;;;;1.10;0.93;;;21.80;48.80;;;;;;10462791;28;20204;-15
2021/05/09 21:11:56;;;;;;;1.20;0.80;;;21.90;48.60;;;;;;10488118;28;20274;-15
2021/05/09 21:17:18;;;;;;;0.80;0.80;;;21.90;48.50;;;;;;10478357;28;20613;-14
2021/05/09 21:22:40;;;;;;;1.10;0.80;;;21.90;48.60;;;;;;10477140;28;20750;-15
2021/05/09 21:28:02;;;;;;;0.93;0.73;;;21.80;48.80;;;;;;10455546;28;20204;-14
2021/05/09 21:33:24;;;;;;;1.57;0.87;;;21.70;49.00;;;;;;10488959;28;20203;-15
2021/05/09 21:38:47;;;;;;;2.20;0.87;;;21.60;49.00;;;;;;10498354;28;20725;-15
2021/05/09 21:44:08;;;;;;;0.80;0.80;;;21.60;49.10;;;;;;10498155;28;20188;-15
2021/05/09 21:49:30;;;;;;;1.50;0.80;;;21.60;49.30;;;;;;10501909;28;20220;-14
2021/05/09 21:54:52;;;;;;;0.80;0.80;;;21.50;49.40;;;;;;10487175;28;20201;-15
2021/05/09 22:00:23;;;;;;;1.10;0.80;;;21.50;49.40;;;;;;10490947;28;20227;-14
2021/05/09 22:05:46;;;;;;;0.80;0.70;;;21.50;49.50;;;;;;10482232;28;20583;-14
2021/05/09 22:11:09;;;;;;;0.97;0.87;;;21.50;49.60;;;;;;10497873;28;20219;-14
2021/05/09 22:16:30;;;;;;;0.83;0.80;;;21.40;49.60;;;;;;10497045;28;20655;-15
2021/05/09 22:21:52;;;;;;;1.50;1.00;;;21.30;49.70;;;;;;10496909;28;20216;-15
2021/05/09 22:27:15;;;;;;;2.00;0.90;;;21.30;49.90;;;;;;10464225;28;20208;-15
2021/05/09 22:32:37;;;;;;;1.00;0.90;;;21.30;49.90;;;;;;10485285;28;20219;-14
2021/05/09 22:37:59;;;;;;;1.00;0.87;;;21.30;49.90;;;;;;10495184;28;20276;-15
2021/05/09 22:43:21;;;;;;;0.73;0.70;;;21.30;49.90;;;;;;10495882;28;20192;-15
2021/05/09 22:48:42;;;;;;;0.97;0.90;;;21.30;49.90;;;;;;10495550;28;20262;-15
2021/05/09 22:54:05;;;;;;;0.60;0.60;;;21.30;49.90;;;;;;10495105;28;20196;-15
2021/05/09 22:59:27;;;;;;;0.63;0.63;;;21.30;49.90;;;;;;10485609;28;20303;-14
2021/05/09 23:04:49;;;;;;;1.20;0.80;;;21.30;49.80;;;;;;10495255;28;20200;-15
2021/05/09 23:10:11;;;;;;;0.93;0.70;;;21.30;49.90;;;;;;10494568;28;20208;-14
2021/05/09 23:15:34;;;;;;;1.10;1.00;;;21.30;49.80;;;;;;10480045;28;20197;-14
2021/05/09 23:26:34;;;;;;;0.93;0.77;;;21.30;49.70;;;;;;10453099;28;20209;-14
2021/05/09 23:31:57;;;;;;;1.83;0.90;;;21.40;49.50;;;;;;10452782;28;20216;-14
2021/05/09 23:37:18;;;;;;;0.83;0.83;;;21.40;49.50;;;;;;10482745;28;20196;-14
2021/05/09 23:42:40;;;;;;;0.70;0.70;;;21.40;49.50;;;;;;10494070;28;20262;-15
2021/05/09 23:48:03;;;;;;;1.03;0.90;;;21.20;49.60;;;;;;10493685;28;20667;-12
2021/05/09 23:53:24;;;;;;;1.20;0.97;;;21.10;49.80;;;;;;10494363;28;20192;-16
2021/05/09 23:58:46;;;;;;;0.80;0.80;;;21.30;49.80;;;;;;10493391;28;20224;-15
